Pagrindinis puslapis
METAR-TAF:

METAR-TAF

Oro uostai :

Tegusigalpa, Hondūras

platuma: 14-03N, ilguma: 087-13W, Aukštis: 994 m

Dabartinis oras

Ataskaita buvo paskelbta 1 valandą ir 2 minutes, ne 11:00 UTC
Vėjas 6 kt iš Šiaurės
Temperatūra 15°C
Drėgmė 88%
Slėgis 1022 hPa
Matomumas 10 km arba daugiau
Mažai debesys ne aukštis 2600 ft

METAR: MHTG 301100Z 36006KT 9999 FEW026 15/13 Q1022 A3018 NOSIG

Laikas: 06:02 (12:02 UTC)

Prognozė

Ataskaita buvo paskelbta 1 valandą ir 2 minutes, ne 11:00 UTC
Prognozė galioja nuo 30 metu 12 UTC su 01 metu 12 UTC
Vėjas 4 kt iš Šiaurės
Matomumas 10 km arba daugiau
Mažai debesys ne aukštis 1200 ft
Tapsmas
nuo 30 metu 14 UTC su 30 metu 16 UTC
Vėjas 14 kt iš Šiaurės
Mažai debesys ne aukštis 3200 ft
Tapsmas
nuo 01 metu 01 UTC su 01 metu 03 UTC
Vėjas 6 kt iš Šiaurės/Šiaurės Rytų
Išsisklaidę debesys ne aukštis 2800 ft

TAF: MHTG 301100Z 3012/0112 36004KT 9999 FEW012 TX27/3021Z TN15/0112Z BECMG 3014/3016 01014KT FEW032 BECMG 0101/0103 02006KT SCT028

Orai ataskaitas ir orų prognozės (METAR, TAF).

turimą stotys yra geltonos ir raudonos taškus žemėlapyje.

Perkelti pele per norėdami pamatyti stoties vardą.

Tada spustelėkite, norėdami matyti oro stebėjimo ir prognozės.

Norėdami pakeisti žemėlapį: spustelėkite ant žalios mygtukų su juodo kryžiaus žemyn,; žalią mygtuką su brūkšneliu, jei norite nutolinti; arba žalių rodyklių gretimoms žemėlapius.


METAR-TAF: